Time;durP1;ratioP1;P1;durP2;ratioP2;P2;SDS_P1;SDS_P2;PMS_P1;PMS_P2;Temp;Humidity;BMP_temperature;BMP_pressure;BME280_temperature;BME280_humidity;BME280_pressure;Samples;Min_cycle;Max_cycle;Signal;HPM_P1;HPM_P2
2023/06/29 00:00:11;;;;;;;10.82;10.52;;;15.50;99.90;;;;;;5040257;28;20574;-77
2023/06/29 00:02:39;;;;;;;10.70;10.40;;;15.50;99.90;;;;;;5039112;28;20238;-78
2023/06/29 00:05:09;;;;;;;10.98;10.68;;;15.50;99.90;;;;;;5039769;28;20246;-78
2023/06/29 00:07:37;;;;;;;10.80;10.50;;;15.40;99.90;;;;;;5040990;28;20227;-77
2023/06/29 00:10:05;;;;;;;10.90;10.60;;;15.40;99.90;;;;;;5039199;28;20242;-78
2023/06/29 00:12:33;;;;;;;10.88;10.57;;;15.30;99.90;;;;;;5039275;28;20238;-77
2023/06/29 00:15:03;;;;;;;10.77;10.48;;;15.30;99.90;;;;;;5039478;28;20242;-77
2023/06/29 00:17:31;;;;;;;10.32;10.02;;;15.30;99.90;;;;;;5038993;28;20211;-78
2023/06/29 00:20:00;;;;;;;10.20;9.90;;;15.20;99.90;;;;;;5038633;28;20319;-78
2023/06/29 00:22:28;;;;;;;10.50;10.20;;;15.30;99.90;;;;;;5040745;28;20326;-77
2023/06/29 00:24:57;;;;;;;10.20;9.90;;;15.20;99.90;;;;;;5045691;28;20306;-78
2023/06/29 00:27:24;;;;;;;10.23;9.93;;;15.20;99.90;;;;;;5045677;28;20277;-77
2023/06/29 00:29:52;;;;;;;10.40;10.10;;;15.20;99.90;;;;;;5046151;28;20322;-78
2023/06/29 00:32:23;;;;;;;10.43;10.13;;;15.20;99.90;;;;;;5045816;28;20245;-77
2023/06/29 00:34:51;;;;;;;10.38;10.07;;;15.20;99.90;;;;;;5046048;28;20234;-78
2023/06/29 00:37:19;;;;;;;10.32;10.02;;;15.20;99.90;;;;;;5045841;28;20237;-77
2023/06/29 00:39:47;;;;;;;10.57;10.27;;;15.10;99.90;;;;;;5047502;28;20241;-77
2023/06/29 00:42:15;;;;;;;10.48;10.18;;;15.10;99.90;;;;;;5047289;28;20265;-78
2023/06/29 00:44:46;;;;;;;10.30;10.00;;;15.10;99.90;;;;;;5046641;28;20281;-78
2023/06/29 00:47:14;;;;;;;10.30;10.00;;;15.10;99.90;;;;;;5045589;28;20274;-77
2023/06/29 00:49:43;;;;;;;10.60;10.30;;;15.10;99.90;;;;;;5046217;28;20238;-77
2023/06/29 00:52:11;;;;;;;10.32;10.02;;;15.10;99.90;;;;;;5050786;28;20238;-78
2023/06/29 00:54:39;;;;;;;10.50;10.20;;;15.00;99.90;;;;;;5045911;28;20235;-78
2023/06/29 00:57:08;;;;;;;10.50;10.20;;;15.00;99.90;;;;;;5045530;28;20275;-78
2023/06/29 00:59:37;;;;;;;10.40;10.10;;;15.00;99.90;;;;;;5045932;28;20231;-78
2023/06/29 01:02:04;;;;;;;10.68;10.38;;;15.00;99.90;;;;;;5046246;28;20330;-77
2023/06/29 01:04:35;;;;;;;10.40;10.10;;;15.00;99.90;;;;;;5045624;28;20245;-77
2023/06/29 01:07:13;;;;;;;10.65;10.35;;;15.00;99.90;;;;;;5046184;28;20258;-78
2023/06/29 01:09:44;;;;;;;10.43;10.13;;;14.90;99.90;;;;;;5045739;28;20234;-77
2023/06/29 01:12:13;;;;;;;10.45;10.15;;;14.90;99.90;;;;;;5047258;28;20252;-78
2023/06/29 01:14:52;;;;;;;10.77;10.48;;;14.90;99.90;;;;;;5047132;28;20255;-77
2023/06/29 01:17:25;;;;;;;10.70;10.40;;;14.90;99.90;;;;;;5047929;28;20215;-78
2023/06/29 01:19:54;;;;;;;10.10;9.80;;;14.90;99.90;;;;;;5046044;28;20720;-77
2023/06/29 01:22:29;;;;;;;10.30;10.00;;;14.80;99.90;;;;;;5042103;28;20243;-78
2023/06/29 01:24:59;;;;;;;10.35;10.05;;;14.80;99.90;;;;;;5045304;28;20253;-78
2023/06/29 01:27:27;;;;;;;10.20;9.90;;;14.80;99.90;;;;;;5046154;28;20226;-78
2023/06/29 01:29:55;;;;;;;10.40;10.10;;;14.70;99.90;;;;;;5050614;28;20295;-78
2023/06/29 01:32:31;;;;;;;10.10;9.80;;;14.70;99.90;;;;;;5050710;28;20242;-77
2023/06/29 01:34:59;;;;;;;9.82;9.52;;;14.70;99.90;;;;;;5040253;28;20250;-78
2023/06/29 01:37:38;;;;;;;10.30;10.00;;;14.60;99.90;;;;;;5048370;28;20212;-77
2023/06/29 01:40:11;;;;;;;10.80;10.50;;;14.60;99.90;;;;;;5043772;28;20246;-78
2023/06/29 01:42:40;;;;;;;10.48;10.18;;;14.60;99.90;;;;;;5043110;28;20232;-78
2023/06/29 01:45:10;;;;;;;10.50;10.20;;;14.50;99.90;;;;;;5043213;28;20241;-78
2023/06/29 01:47:39;;;;;;;10.30;10.00;;;14.50;99.90;;;;;;5046487;28;20234;-77
2023/06/29 01:50:08;;;;;;;10.20;9.90;;;14.50;99.90;;;;;;5047453;28;20244;-78
2023/06/29 01:52:36;;;;;;;10.50;10.20;;;14.40;99.90;;;;;;5045568;28;20228;-77
2023/06/29 01:55:06;;;;;;;10.25;9.95;;;14.40;99.90;;;;;;5044011;28;20237;-78
2023/06/29 01:57:35;;;;;;;10.60;10.30;;;14.50;99.90;;;;;;5043039;28;20228;-78
2023/06/29 02:00:05;;;;;;;10.70;10.40;;;14.40;99.90;;;;;;5043260;28;20327;-76
2023/06/29 02:02:34;;;;;;;10.60;10.30;;;14.40;99.90;;;;;;5042114;28;20239;-78
2023/06/29 02:05:03;;;;;;;10.77;10.48;;;14.40;99.90;;;;;;5044987;28;20289;-79
2023/06/29 02:07:32;;;;;;;10.65;10.35;;;14.40;99.90;;;;;;5045764;28;20232;-78
2023/06/29 02:10:02;;;;;;;10.57;10.27;;;14.40;99.90;;;;;;5043157;28;20243;-77
2023/06/29 02:12:30;;;;;;;10.60;10.30;;;14.30;99.90;;;;;;5041735;28;20239;-78
2023/06/29 02:15:01;;;;;;;10.40;10.10;;;14.30;99.90;;;;;;5040337;28;20339;-77
2023/06/29 02:17:29;;;;;;;10.52;10.23;;;14.30;99.90;;;;;;5037127;28;20312;-77
2023/06/29 02:19:56;;;;;;;10.60;10.30;;;14.30;99.90;;;;;;5019696;28;20260;-77
2023/06/29 02:22:24;;;;;;;10.90;10.60;;;14.30;99.90;;;;;;5021064;28;20712;-77
2023/06/29 02:24:52;;;;;;;10.70;10.40;;;14.30;99.90;;;;;;5032168;28;20243;-78
2023/06/29 02:27:19;;;;;;;10.70;10.40;;;14.20;99.90;;;;;;5039969;28;20232;-77
2023/06/29 02:29:47;;;;;;;10.50;10.20;;;14.20;99.90;;;;;;5040796;28;20227;-77
2023/06/29 02:32:16;;;;;;;10.50;10.20;;;14.20;99.90;;;;;;5041193;28;20327;-78
2023/06/29 02:34:43;;;;;;;10.60;10.30;;;14.20;99.90;;;;;;5040062;28;20262;-78
2023/06/29 02:37:11;;;;;;;10.60;10.30;;;14.10;99.90;;;;;;5040335;28;20278;-78
2023/06/29 02:39:38;;;;;;;10.57;10.27;;;14.10;99.90;;;;;;5039961;28;20238;-77
2023/06/29 02:42:06;;;;;;;10.70;10.40;;;14.10;99.90;;;;;;5042186;28;20295;-77
2023/06/29 02:44:34;;;;;;;11.13;10.83;;;14.10;99.90;;;;;;5040399;28;20239;-78
2023/06/29 02:47:02;;;;;;;10.97;10.67;;;14.10;99.90;;;;;;5039139;28;20239;-77
2023/06/29 02:49:30;;;;;;;11.10;10.80;;;14.00;99.90;;;;;;5040131;28;20227;-77
2023/06/29 02:51:58;;;;;;;10.80;10.50;;;14.10;99.90;;;;;;5041129;28;20234;-77
2023/06/29 02:54:25;;;;;;;10.80;10.50;;;14.00;99.90;;;;;;5040013;28;20236;-78
2023/06/29 02:56:53;;;;;;;10.95;10.65;;;13.90;99.90;;;;;;5040343;28;20227;-77
2023/06/29 02:59:21;;;;;;;11.10;10.80;;;13.90;99.90;;;;;;5039517;28;20245;-78
2023/06/29 03:01:49;;;;;;;10.97;10.67;;;13.90;99.90;;;;;;5040445;28;20239;-76
2023/06/29 03:04:16;;;;;;;11.23;10.90;;;13.90;99.90;;;;;;5040541;28;20240;-77
2023/06/29 03:06:46;;;;;;;11.20;10.90;;;13.90;99.90;;;;;;5039718;28;20299;-78
2023/06/29 03:09:13;;;;;;;11.07;10.77;;;13.90;99.90;;;;;;5040105;28;20322;-77
2023/06/29 03:11:41;;;;;;;11.40;11.00;;;13.90;99.90;;;;;;5046252;28;20242;-77
2023/06/29 03:14:08;;;;;;;11.10;10.80;;;13.90;99.90;;;;;;5045889;28;20267;-78
2023/06/29 03:16:36;;;;;;;11.45;11.10;;;13.80;99.90;;;;;;5042871;28;20310;-77
2023/06/29 03:19:04;;;;;;;10.83;10.53;;;13.80;99.90;;;;;;5039971;28;20238;-77
2023/06/29 03:21:31;;;;;;;10.80;10.50;;;13.80;99.90;;;;;;5040196;28;20247;-76
2023/06/29 03:24:05;;;;;;;10.63;10.33;;;13.80;99.90;;;;;;5045430;28;20227;-77
2023/06/29 03:26:37;;;;;;;10.68;10.38;;;13.70;99.90;;;;;;5052923;28;20219;-77
2023/06/29 03:29:11;;;;;;;10.55;10.25;;;13.70;99.90;;;;;;5046058;28;20231;-77
2023/06/29 03:31:39;;;;;;;10.77;10.47;;;13.70;99.90;;;;;;5045665;28;20232;-77
2023/06/29 03:34:06;;;;;;;10.63;10.33;;;13.70;99.90;;;;;;5044412;28;20223;-76
2023/06/29 03:36:34;;;;;;;10.73;10.43;;;13.70;99.90;;;;;;5040092;28;20223;-77
2023/06/29 03:39:03;;;;;;;10.80;10.50;;;13.70;99.90;;;;;;5050635;28;20295;-78
2023/06/29 03:41:31;;;;;;;10.50;10.20;;;13.70;99.90;;;;;;5039726;28;20274;-77
2023/06/29 03:43:58;;;;;;;10.82;10.52;;;13.70;99.90;;;;;;5040043;28;20235;-78
2023/06/29 03:49:11;;;;;;;10.67;10.37;;;13.80;99.90;;;;;;5056551;28;20212;-77
2023/06/29 03:51:38;;;;;;;10.60;10.30;;;13.80;99.90;;;;;;5039752;28;20240;-77
2023/06/29 03:54:07;;;;;;;10.80;10.50;;;13.80;99.90;;;;;;5039438;28;20215;-78
2023/06/29 03:56:35;;;;;;;10.70;10.40;;;13.80;99.90;;;;;;5040542;28;20314;-78
2023/06/29 03:59:02;;;;;;;11.00;10.70;;;13.80;99.90;;;;;;5039181;28;20232;-78
2023/06/29 04:01:30;;;;;;;10.70;10.40;;;13.90;99.90;;;;;;5044986;28;20326;-78
2023/06/29 04:03:59;;;;;;;10.73;10.43;;;13.90;99.90;;;;;;5050449;28;20258;-78
2023/06/29 04:06:26;;;;;;;10.73;10.43;;;13.90;99.90;;;;;;5045125;28;20283;-78
2023/06/29 04:08:54;;;;;;;11.07;10.77;;;13.90;99.90;;;;;;5040121;28;20330;-77
2023/06/29 04:11:23;;;;;;;11.10;10.80;;;13.90;99.90;;;;;;5039242;28;20239;-78
2023/06/29 04:13:51;;;;;;;11.10;10.80;;;13.90;99.90;;;;;;5039460;28;20343;-78
2023/06/29 04:16:18;;;;;;;11.02;10.73;;;14.00;99.90;;;;;;5039802;28;20237;-78
2023/06/29 04:18:45;;;;;;;11.07;10.77;;;14.00;99.90;;;;;;5039265;28;20233;-77
2023/06/29 04:21:13;;;;;;;11.00;10.70;;;14.00;99.90;;;;;;5039108;28;20265;-78
2023/06/29 04:23:41;;;;;;;11.10;10.80;;;14.00;99.90;;;;;;5041788;28;20261;-79
2023/06/29 04:26:10;;;;;;;11.48;11.07;;;14.00;99.90;;;;;;5040465;28;20263;-77
2023/06/29 04:28:44;;;;;;;11.20;10.90;;;14.10;99.90;;;;;;5039472;28;20266;-78
2023/06/29 04:31:12;;;;;;;11.13;10.82;;;14.10;99.90;;;;;;5039277;28;20235;-78
2023/06/29 04:33:40;;;;;;;11.10;10.80;;;14.20;99.90;;;;;;5040189;28;20314;-78
2023/06/29 04:36:28;;;;;;;10.88;10.57;;;14.30;99.90;;;;;;5078644;22;20278;-84
2023/06/29 04:54:42;;;;;;;10.85;10.55;;;14.70;99.90;;;;;;5011644;28;20239;-84
2023/06/29 07:59:50;;;;;;;10.95;10.65;;;23.10;99.90;;;;;;4844913;29;20216;-87
2023/06/29 08:29:16;;;;;;;11.30;11.00;;;24.50;99.90;;;;;;4782184;29;20225;-87
2023/06/29 08:47:06;;;;;;;11.20;10.90;;;25.40;99.90;;;;;;4770385;29;20240;-86
2023/06/29 08:49:56;;;;;;;11.45;11.15;;;25.50;99.90;;;;;;4787485;29;20237;-84
2023/06/29 08:52:33;;;;;;;11.15;10.85;;;25.50;99.90;;;;;;4951281;28;20232;-84
2023/06/29 08:58:31;;;;;;;11.35;11.05;;;25.80;99.90;;;;;;4990985;28;20279;-83
2023/06/29 09:01:02;;;;;;;11.00;10.70;;;25.90;99.90;;;;;;4961747;28;20236;-83
2023/06/29 09:03:42;;;;;;;11.10;10.80;;;25.90;99.90;;;;;;5005455;28;20319;-85
2023/06/29 09:06:10;;;;;;;11.27;10.98;;;26.00;99.90;;;;;;4999072;28;20236;-82
2023/06/29 09:09:14;;;;;;;11.25;10.95;;;26.20;99.90;;;;;;5005730;28;20260;-86
2023/06/29 10:33:04;;;;;;;11.18;10.88;;;28.90;99.90;;;;;;5044713;28;20325;-83
2023/06/29 10:35:33;;;;;;;11.60;11.20;;;29.20;99.90;;;;;;5056480;22;20231;-78
2023/06/29 10:38:01;;;;;;;11.35;11.05;;;29.50;99.90;;;;;;5044887;28;20227;-79
2023/06/29 10:40:29;;;;;;;11.10;10.80;;;29.70;99.90;;;;;;5044407;28;20227;-78
2023/06/29 10:42:57;;;;;;;11.20;10.90;;;30.00;99.90;;;;;;5043989;28;20246;-79
2023/06/29 10:45:33;;;;;;;11.45;11.15;;;30.20;99.90;;;;;;5043254;28;20235;-78
2023/06/29 10:48:21;;;;;;;11.48;11.18;;;30.50;99.90;;;;;;5046195;28;20251;-78
2023/06/29 10:50:50;;;;;;;11.48;11.13;;;30.70;99.90;;;;;;5045420;28;20238;-78
2023/06/29 10:53:19;;;;;;;11.20;10.90;;;30.70;99.90;;;;;;5045938;28;20255;-78
2023/06/29 10:55:52;;;;;;;11.38;11.07;;;30.90;99.90;;;;;;5045476;28;20246;-79
2023/06/29 10:58:25;;;;;;;11.25;10.95;;;31.00;99.90;;;;;;5045856;28;20236;-79
2023/06/29 11:00:54;;;;;;;11.00;10.70;;;30.80;99.90;;;;;;5046647;28;20294;-78
2023/06/29 11:03:25;;;;;;;10.82;10.52;;;30.40;99.90;;;;;;5045372;28;20350;-78
2023/06/29 11:05:54;;;;;;;11.00;10.70;;;30.40;99.90;;;;;;5044435;28;20321;-78
2023/06/29 11:08:24;;;;;;;11.07;10.77;;;30.10;99.90;;;;;;5043540;28;20227;-78
2023/06/29 11:10:53;;;;;;;10.90;10.60;;;29.90;99.90;;;;;;5042569;28;20231;-81
2023/06/29 11:13:21;;;;;;;10.80;10.50;;;29.80;99.90;;;;;;5044046;28;20232;-81
2023/06/29 11:15:59;;;;;;;10.70;10.40;;;29.70;99.90;;;;;;5044918;28;20239;-81
2023/06/29 11:18:32;;;;;;;10.88;10.57;;;29.80;99.90;;;;;;5045585;28;20227;-81
2023/06/29 11:21:03;;;;;;;10.95;10.65;;;30.20;99.90;;;;;;5055729;28;20215;-81
2023/06/29 11:23:31;;;;;;;10.82;10.52;;;30.20;99.90;;;;;;5056170;28;20314;-80
2023/06/29 11:26:06;;;;;;;11.07;10.77;;;30.40;99.90;;;;;;5046107;28;20398;-80
2023/06/29 11:28:36;;;;;;;10.90;10.60;;;30.60;99.90;;;;;;5043857;28;20262;-83
2023/06/29 11:31:05;;;;;;;11.00;10.70;;;30.50;99.90;;;;;;5043875;28;20331;-82
2023/06/29 11:33:36;;;;;;;11.38;11.07;;;30.80;99.90;;;;;;5043898;28;20235;-80
2023/06/29 11:36:04;;;;;;;11.13;10.82;;;31.10;99.90;;;;;;5045712;28;20261;-80
2023/06/29 11:38:32;;;;;;;11.27;10.98;;;31.40;99.90;;;;;;5045408;28;20238;-81
2023/06/29 11:41:07;;;;;;;11.18;10.88;;;31.70;99.90;;;;;;5044588;28;20247;-81
2023/06/29 11:43:40;;;;;;;11.32;11.02;;;32.10;99.90;;;;;;5048251;28;20231;-82
2023/06/29 11:46:09;;;;;;;11.35;11.05;;;32.20;99.90;;;;;;5046316;28;20244;-82
2023/06/29 11:48:39;;;;;;;11.10;10.80;;;32.20;99.90;;;;;;5045572;28;20232;-79
2023/06/29 11:51:07;;;;;;;11.18;10.88;;;32.30;99.90;;;;;;5043647;28;20310;-78
2023/06/29 11:53:35;;;;;;;11.13;10.82;;;32.60;99.90;;;;;;5043964;28;20238;-79
2023/06/29 11:56:02;;;;;;;11.13;10.82;;;33.00;99.90;;;;;;5041390;28;20274;-80
2023/06/29 11:58:35;;;;;;;11.20;10.90;;;32.90;99.90;;;;;;5041238;28;20262;-77
2023/06/29 12:01:14;;;;;;;11.30;11.00;;;32.90;99.90;;;;;;5041292;28;20220;-81
2023/06/29 12:03:43;;;;;;;11.40;11.10;;;33.10;99.90;;;;;;5044935;28;20307;-80
2023/06/29 12:06:11;;;;;;;11.43;11.13;;;33.20;99.90;;;;;;5042528;28;20259;-76
2023/06/29 12:08:39;;;;;;;11.65;11.30;;;32.90;99.90;;;;;;5041932;28;20258;-78
2023/06/29 12:11:07;;;;;;;11.73;11.32;;;32.80;99.90;;;;;;5041552;28;20273;-79
2023/06/29 12:13:35;;;;;;;11.68;11.27;;;33.00;99.90;;;;;;5043475;28;20227;-80
2023/06/29 12:16:02;;;;;;;11.43;11.13;;;32.80;99.90;;;;;;5044945;28;20259;-80
2023/06/29 12:18:32;;;;;;;11.05;10.75;;;33.00;99.90;;;;;;5045301;28;20238;-79
2023/06/29 12:21:02;;;;;;;11.10;10.80;;;33.20;99.90;;;;;;5050816;28;20231;-81
2023/06/29 12:23:30;;;;;;;11.38;11.07;;;33.50;99.90;;;;;;5044433;28;20236;-80
2023/06/29 12:25:57;;;;;;;10.85;10.55;;;33.70;99.90;;;;;;5043688;28;20263;-80
2023/06/29 12:28:25;;;;;;;10.80;10.50;;;33.70;99.90;;;;;;5043989;28;20278;-81
2023/06/29 12:30:53;;;;;;;10.85;10.55;;;33.70;99.90;;;;;;5044996;28;20242;-79
2023/06/29 12:33:20;;;;;;;10.77;10.48;;;33.70;99.90;;;;;;5045312;28;20239;-79
2023/06/29 12:35:49;;;;;;;10.50;10.20;;;33.20;99.90;;;;;;5043560;28;20239;-82
2023/06/29 12:38:18;;;;;;;10.20;9.90;;;33.30;99.90;;;;;;5044533;28;20263;-81
2023/06/29 12:40:46;;;;;;;10.40;10.10;;;33.00;99.90;;;;;;5046386;28;20279;-81
2023/06/29 12:43:14;;;;;;;10.20;9.90;;;32.70;99.90;;;;;;5045661;28;20249;-81
2023/06/29 12:45:41;;;;;;;10.50;10.20;;;32.70;99.90;;;;;;5045248;28;20303;-80
2023/06/29 12:48:09;;;;;;;10.18;9.88;;;32.60;99.90;;;;;;5046808;28;20262;-80
2023/06/29 12:50:37;;;;;;;10.75;10.45;;;32.50;99.90;;;;;;5029587;28;20692;-82
2023/06/29 12:53:04;;;;;;;10.80;10.50;;;32.60;99.90;;;;;;5031178;28;20332;-81
2023/06/29 12:55:36;;;;;;;11.73;11.40;;;32.80;99.90;;;;;;5031265;28;20443;-83
2023/06/29 12:58:04;;;;;;;11.20;10.90;;;33.00;99.90;;;;;;5043838;28;20227;-84
2023/06/29 13:00:34;;;;;;;11.20;10.90;;;33.60;99.90;;;;;;5043804;28;20228;-83
2023/06/29 13:03:09;;;;;;;11.10;10.80;;;34.20;99.90;;;;;;5043478;28;20232;-81
2023/06/29 13:05:36;;;;;;;10.90;10.60;;;34.50;99.90;;;;;;5043886;28;20234;-83
2023/06/29 13:08:08;;;;;;;10.95;10.65;;;34.40;99.90;;;;;;5031090;28;20322;-83
2023/06/29 13:10:38;;;;;;;10.90;10.60;;;34.60;99.90;;;;;;5031704;28;20227;-80
2023/06/29 13:13:06;;;;;;;10.80;10.50;;;34.50;99.90;;;;;;5030694;28;20234;-81
2023/06/29 13:15:34;;;;;;;10.70;10.40;;;34.10;99.90;;;;;;4963457;28;20260;-81
2023/06/29 13:18:02;;;;;;;10.73;10.43;;;34.00;99.90;;;;;;5024091;28;20212;-78
2023/06/29 13:20:30;;;;;;;11.13;10.82;;;33.90;99.90;;;;;;5046347;28;20266;-80
2023/06/29 13:23:00;;;;;;;10.95;10.65;;;33.80;99.90;;;;;;5036756;28;20247;-81
2023/06/29 13:25:29;;;;;;;10.98;10.68;;;33.90;99.90;;;;;;5035112;28;20240;-81
2023/06/29 13:28:00;;;;;;;11.00;10.70;;;34.10;99.90;;;;;;5022308;28;20267;-81
2023/06/29 13:30:32;;;;;;;10.90;10.60;;;34.40;99.90;;;;;;5039484;28;20223;-80
2023/06/29 13:33:00;;;;;;;11.00;10.70;;;34.40;99.90;;;;;;5049101;28;20248;-82
2023/06/29 13:35:27;;;;;;;10.70;10.40;;;33.70;99.90;;;;;;5052263;28;20247;-79
2023/06/29 13:37:55;;;;;;;10.48;10.18;;;33.40;99.90;;;;;;5058786;28;20212;-78
2023/06/29 13:40:23;;;;;;;10.60;10.30;;;32.90;99.90;;;;;;5060104;28;20243;-79
2023/06/29 13:42:51;;;;;;;10.40;10.10;;;33.00;99.90;;;;;;5053970;28;20331;-79
2023/06/29 13:45:20;;;;;;;10.70;10.40;;;33.30;99.90;;;;;;5051737;28;20296;-79
2023/06/29 13:47:49;;;;;;;10.90;10.60;;;33.50;99.90;;;;;;5060614;28;20235;-79
2023/06/29 13:50:17;;;;;;;11.20;10.90;;;33.90;99.90;;;;;;5059645;28;20227;-79
2023/06/29 13:52:45;;;;;;;11.30;11.00;;;34.30;99.90;;;;;;5053252;28;20223;-81
2023/06/29 13:55:12;;;;;;;11.10;10.80;;;34.30;99.90;;;;;;5058211;28;20242;-80
2023/06/29 13:57:40;;;;;;;10.88;10.57;;;34.40;99.90;;;;;;5059102;28;20231;-79
2023/06/29 14:00:10;;;;;;;11.10;10.80;;;34.50;99.90;;;;;;5050465;28;20228;-80
2023/06/29 14:02:39;;;;;;;11.20;10.90;;;34.70;99.90;;;;;;5057283;28;20227;-79
2023/06/29 14:05:09;;;;;;;11.43;11.13;;;35.00;99.90;;;;;;5049661;28;20231;-81
2023/06/29 14:07:37;;;;;;;10.93;10.63;;;35.60;99.90;;;;;;5018570;28;20230;-80
2023/06/29 14:10:05;;;;;;;11.23;10.93;;;35.70;99.90;;;;;;5031909;28;20247;-81
2023/06/29 14:12:36;;;;;;;10.98;10.68;;;35.90;99.90;;;;;;5036304;28;20284;-81
2023/06/29 14:15:04;;;;;;;11.32;11.02;;;35.80;99.90;;;;;;5027834;28;20283;-81
2023/06/29 14:17:32;;;;;;;11.30;11.00;;;35.70;99.90;;;;;;5049614;28;20238;-81
2023/06/29 14:20:04;;;;;;;11.30;11.00;;;35.30;99.90;;;;;;4964337;28;20223;-83
2023/06/29 14:22:32;;;;;;;11.27;10.98;;;35.30;99.90;;;;;;5045562;28;20232;-80
2023/06/29 14:25:01;;;;;;;10.90;10.60;;;35.20;99.90;;;;;;5045280;28;20243;-80
2023/06/29 14:27:29;;;;;;;10.93;10.63;;;35.40;99.90;;;;;;5044017;28;20330;-80
2023/06/29 14:29:57;;;;;;;10.73;10.43;;;35.60;99.90;;;;;;5043817;28;20231;-78
2023/06/29 14:32:25;;;;;;;10.57;10.27;;;35.00;99.70;;;;;;5041962;28;20236;-78
2023/06/29 14:34:53;;;;;;;10.80;10.50;;;34.40;99.90;;;;;;5039601;28;20235;-77
2023/06/29 14:37:22;;;;;;;10.52;10.23;;;33.80;99.90;;;;;;5041132;28;20223;-78
2023/06/29 14:39:49;;;;;;;10.80;10.50;;;33.40;99.90;;;;;;5039903;28;20234;-79
2023/06/29 14:42:17;;;;;;;10.80;10.50;;;33.00;99.90;;;;;;5038338;28;20236;-76
2023/06/29 14:44:45;;;;;;;10.90;10.60;;;32.60;99.90;;;;;;5038664;28;20239;-77
2023/06/29 14:47:17;;;;;;;11.27;10.98;;;32.20;99.90;;;;;;5040315;28;20231;-78
2023/06/29 14:49:45;;;;;;;11.10;10.80;;;31.80;99.90;;;;;;5039801;28;20224;-77
2023/06/29 14:52:13;;;;;;;11.10;10.80;;;31.60;99.90;;;;;;5039083;28;20223;-77
2023/06/29 14:54:42;;;;;;;10.88;10.57;;;31.60;99.90;;;;;;5038293;28;20259;-77
2023/06/29 14:57:10;;;;;;;10.90;10.60;;;31.50;99.90;;;;;;5039247;28;20419;-77
2023/06/29 14:59:38;;;;;;;10.95;10.65;;;31.30;99.90;;;;;;5041588;28;20319;-79
2023/06/29 15:02:09;;;;;;;11.00;10.70;;;31.30;99.90;;;;;;5043227;28;20236;-78
2023/06/29 15:04:39;;;;;;;10.70;10.40;;;31.20;99.90;;;;;;5043439;28;20303;-80
2023/06/29 15:07:07;;;;;;;10.55;10.25;;;31.20;99.90;;;;;;5039727;28;20459;-77
2023/06/29 15:09:35;;;;;;;10.70;10.40;;;31.30;99.90;;;;;;5040320;28;20224;-77
2023/06/29 15:12:05;;;;;;;10.50;10.20;;;31.20;99.90;;;;;;5039688;28;20242;-77
2023/06/29 15:14:32;;;;;;;10.60;10.30;;;31.10;99.90;;;;;;5043705;28;20245;-77
2023/06/29 15:17:00;;;;;;;10.80;10.50;;;31.00;99.90;;;;;;5039733;28;20323;-78
2023/06/29 15:19:27;;;;;;;10.80;10.50;;;30.80;99.90;;;;;;5039847;28;20242;-79
2023/06/29 15:21:55;;;;;;;10.60;10.30;;;30.50;99.90;;;;;;5043138;28;20245;-77
2023/06/29 15:24:22;;;;;;;10.80;10.50;;;30.50;99.90;;;;;;5038882;28;20231;-77
2023/06/29 15:26:50;;;;;;;10.40;10.10;;;30.60;99.90;;;;;;5038581;28;20235;-78
2023/06/29 15:29:22;;;;;;;10.70;10.40;;;30.60;99.90;;;;;;5040104;28;20685;-78
2023/06/29 15:31:50;;;;;;;10.50;10.20;;;30.50;99.90;;;;;;5038974;28;20278;-77
2023/06/29 15:34:18;;;;;;;10.60;10.30;;;30.20;99.90;;;;;;5040753;28;20271;-78
2023/06/29 15:36:45;;;;;;;10.70;10.40;;;30.20;99.90;;;;;;5040088;28;20271;-78
2023/06/29 15:39:13;;;;;;;10.80;10.50;;;30.00;99.90;;;;;;5040333;28;20231;-78
2023/06/29 15:41:40;;;;;;;10.98;10.68;;;29.60;99.90;;;;;;5041696;28;20243;-78
2023/06/29 15:44:07;;;;;;;10.85;10.55;;;29.50;99.90;;;;;;5040406;28;20282;-77
2023/06/29 15:46:40;;;;;;;10.93;10.63;;;29.40;99.90;;;;;;5040084;28;20314;-78
2023/06/29 15:49:08;;;;;;;11.10;10.80;;;29.30;99.90;;;;;;5040622;28;20227;-78
2023/06/29 15:51:36;;;;;;;11.30;11.00;;;29.20;99.90;;;;;;5040085;28;20241;-78
2023/06/29 15:54:03;;;;;;;10.90;10.60;;;29.10;99.90;;;;;;5039679;28;20231;-78
2023/06/29 15:56:31;;;;;;;11.60;11.30;;;29.00;99.90;;;;;;5039432;28;20235;-77
2023/06/29 15:58:58;;;;;;;11.10;10.80;;;28.90;99.90;;;;;;5040362;28;20219;-77
2023/06/29 16:01:26;;;;;;;11.02;10.73;;;28.70;99.90;;;;;;5041088;28;20231;-77
2023/06/29 16:03:55;;;;;;;10.98;10.68;;;28.70;99.90;;;;;;5039288;28;20242;-77
2023/06/29 16:06:27;;;;;;;10.95;10.65;;;28.50;99.90;;;;;;5035164;28;20235;-77
2023/06/29 16:08:54;;;;;;;10.88;10.57;;;28.40;99.90;;;;;;5037695;28;20243;-77
2023/06/29 16:11:22;;;;;;;10.90;10.60;;;28.30;99.90;;;;;;5038557;28;20235;-77
2023/06/29 16:13:49;;;;;;;10.77;10.48;;;28.30;99.90;;;;;;5041430;28;20264;-75
2023/06/29 16:16:17;;;;;;;10.82;10.52;;;28.20;99.90;;;;;;5016157;28;88595;-77
2023/06/29 16:18:45;;;;;;;10.63;10.32;;;28.00;99.90;;;;;;5065023;28;20215;-76
2023/06/29 16:21:14;;;;;;;10.65;10.35;;;27.50;99.90;;;;;;5063167;28;20298;-76
2023/06/29 16:23:41;;;;;;;10.90;10.60;;;26.90;99.90;;;;;;5059622;28;20241;-76
2023/06/29 16:26:09;;;;;;;10.50;10.20;;;26.50;99.90;;;;;;5059542;28;20333;-76
2023/06/29 16:28:37;;;;;;;10.70;10.40;;;26.20;99.90;;;;;;5060716;28;20258;-76
2023/06/29 16:31:04;;;;;;;10.70;10.40;;;26.00;99.90;;;;;;5061731;28;20292;-76
2023/06/29 16:33:32;;;;;;;10.95;10.65;;;25.90;99.90;;;;;;5060253;28;20233;-77
2023/06/29 16:36:04;;;;;;;10.80;10.50;;;25.80;99.90;;;;;;5077531;22;20282;-84
2023/06/29 16:41:19;;;;;;;10.85;10.55;;;25.70;99.90;;;;;;5053999;28;20231;-85
2023/06/29 16:43:49;;;;;;;11.00;10.70;;;25.70;99.90;;;;;;5056000;28;20282;-85
2023/06/29 16:46:18;;;;;;;10.93;10.63;;;25.70;99.90;;;;;;5056140;28;20247;-84
2023/06/29 16:48:57;;;;;;;10.75;10.45;;;25.90;99.90;;;;;;5056141;28;20219;-85
2023/06/29 16:51:25;;;;;;;10.70;10.40;;;26.00;99.90;;;;;;5067178;28;20298;-85
2023/06/29 16:54:04;;;;;;;10.43;10.13;;;26.00;99.90;;;;;;5070717;28;20238;-85
2023/06/29 16:56:33;;;;;;;10.13;9.82;;;26.00;99.90;;;;;;5065622;28;20297;-85
2023/06/29 16:59:02;;;;;;;10.50;10.20;;;26.00;99.90;;;;;;5063793;28;20231;-84
2023/06/29 17:01:32;;;;;;;10.38;10.07;;;26.00;99.90;;;;;;5066306;28;20234;-85
2023/06/29 17:04:02;;;;;;;10.20;9.90;;;26.00;99.90;;;;;;5078400;28;20223;-88
2023/06/29 17:06:30;;;;;;;10.40;10.10;;;26.10;99.90;;;;;;5079968;28;20225;-85
2023/06/29 17:09:10;;;;;;;10.23;9.93;;;26.10;99.90;;;;;;5075142;28;20321;-85
2023/06/29 17:11:39;;;;;;;10.70;10.40;;;26.20;99.90;;;;;;5065743;28;20230;-85
2023/06/29 17:14:08;;;;;;;10.50;10.20;;;26.20;99.90;;;;;;5064166;28;20222;-83
2023/06/29 17:16:37;;;;;;;10.40;10.10;;;26.10;99.90;;;;;;5062578;28;20242;-85
2023/06/29 17:19:06;;;;;;;10.50;10.20;;;26.10;99.90;;;;;;5064343;28;20292;-85
2023/06/29 17:21:36;;;;;;;10.40;10.10;;;26.10;99.90;;;;;;5063774;28;20409;-85
2023/06/29 17:24:08;;;;;;;10.30;10.00;;;26.20;99.90;;;;;;5064181;28;20234;-85
2023/06/29 17:26:36;;;;;;;10.20;9.90;;;26.00;99.90;;;;;;5063254;28;20223;-84
2023/06/29 17:29:04;;;;;;;10.50;10.20;;;25.90;99.90;;;;;;5062899;28;20330;-85
2023/06/29 17:31:33;;;;;;;10.30;10.00;;;25.80;99.90;;;;;;5065211;28;20318;-84
2023/06/29 17:34:04;;;;;;;10.40;10.10;;;25.80;99.90;;;;;;5062881;28;20330;-85
2023/06/29 17:36:41;;;;;;;10.20;9.90;;;25.70;99.90;;;;;;5064323;28;20239;-86
2023/06/29 17:39:21;;;;;;;10.30;10.00;;;25.60;99.90;;;;;;5063372;28;20222;-85
2023/06/29 17:41:52;;;;;;;9.95;9.65;;;25.50;99.90;;;;;;5062781;28;20258;-87
2023/06/29 17:44:27;;;;;;;10.10;9.80;;;25.40;99.90;;;;;;5063487;28;20241;-87
2023/06/29 17:46:57;;;;;;;9.80;9.50;;;25.40;99.90;;;;;;5065312;28;20230;-88
2023/06/29 17:50:22;;;;;;;9.85;9.55;;;25.40;99.90;;;;;;5070238;28;20239;-88
2023/06/29 17:52:50;;;;;;;10.15;9.85;;;25.30;99.90;;;;;;5064533;28;20231;-88
2023/06/29 17:55:38;;;;;;;9.75;9.45;;;25.30;99.90;;;;;;5065170;28;20261;-87
2023/06/29 17:58:05;;;;;;;9.63;9.32;;;25.30;99.90;;;;;;5056732;28;20719;-87
2023/06/29 18:00:42;;;;;;;9.82;9.52;;;25.30;99.90;;;;;;5065856;28;20222;-88
2023/06/29 18:03:16;;;;;;;10.10;9.80;;;25.20;99.90;;;;;;5043704;28;20231;-88
2023/06/29 18:05:44;;;;;;;9.70;9.40;;;25.20;99.90;;;;;;5052377;28;20246;-88
2023/06/29 18:08:13;;;;;;;9.93;9.63;;;25.20;99.90;;;;;;5054752;28;20242;-88
2023/06/29 18:11:01;;;;;;;9.80;9.50;;;25.30;99.90;;;;;;5060829;28;20238;-88